Marechal Rondon Airport
SBCY : rendu visible

Aérodrome :











RETROUVEZ-NOUS SUR...

 
LOGIN :

S'inscrire | Disclaimer

   EN    FR    IT 

 









Légende :    VFR   VFR Marginal   IFR   IFR Intensif   IFR Très Intensif
Visi : 
Plafond : 
>= 8 km
>= 3000ft
5 à 8 km
1000 à 3000 ft
1500m à 5 km
500 à 1000 ft
800 à 1500m
200 à 500 ft
< 800m
< 200 ft
Symboles :   Orages  Brouillard  Fortes neiges  Fortes précipitations  Vent > 20 kt






- Altitude de l'aérodrome : 617 ft
- Code IATA : CGB


SBCY - Marechal Rondon

DERNIER METAR :
  • 020700Z 32004KT CAVOK 25/23 Q1012

METARs EXPIRÉS :
  • 020600Z 30004KT CAVOK 26/23 Q1012
  • 020500Z 35002KT CAVOK 25/22 Q1013

TAF TAF SBCY
Valide du 02 à 06h jusqu'au 03 à 06h UTC


020300Z 0206/0306 32005KT CAVOK TN24/0209Z TX35/0217Z
BECMG 0215/0217 SCT020 FEW025TCU
PROB30
TEMPO 0218/0220 4000 TSRA BKN020 FEW025CB
BECMG 0220/0222 04005KT
BECMG 0300/0302 32005KT FEW020 RMK PGZ



MET'MAP, la Météo Aéronautique d'un coup d'oeil ! - Copyright ORBIFLY Décembre 2007 - Disclaimer

ORBIFLY MET'MAP TEAM :

Programmation & Développement : Alexandra Zaïnal
Sur une idée originale de : Baudouin d'Aumeries
Assistance à la programmation : Marc-Olivier Méhu
Soutien technique & logistique : Manuel Goepfert

Contact : metmap@orbifly.com




SOURCES & CREDITS :

   NOAA       Earth
Advisory